sensor_id;sensor_type;location;lat;lon;timestamp;temperature;humidity
38746;DHT22;24488;0.000;0.000;2022-12-11T00:01:53;23.20;64.00
38746;DHT22;24488;0.000;0.000;2022-12-11T00:04:19;23.10;63.90
38746;DHT22;24488;0.000;0.000;2022-12-11T00:06:44;23.10;64.00
38746;DHT22;24488;0.000;0.000;2022-12-11T00:09:10;23.30;64.00
38746;DHT22;24488;0.000;0.000;2022-12-11T00:11:36;23.10;63.90
38746;DHT22;24488;0.000;0.000;2022-12-11T00:14:02;23.20;64.00
38746;DHT22;24488;0.000;0.000;2022-12-11T00:16:27;23.20;64.10
38746;DHT22;24488;0.000;0.000;2022-12-11T00:18:53;23.20;63.90
38746;DHT22;24488;0.000;0.000;2022-12-11T00:21:19;23.20;63.90
38746;DHT22;24488;0.000;0.000;2022-12-11T00:23:45;23.10;64.80
38746;DHT22;24488;0.000;0.000;2022-12-11T00:26:13;23.30;64.00
38746;DHT22;24488;0.000;0.000;2022-12-11T00:28:40;23.10;63.80
38746;DHT22;24488;0.000;0.000;2022-12-11T00:31:07;23.20;63.80
38746;DHT22;24488;0.000;0.000;2022-12-11T00:33:33;23.20;63.90
38746;DHT22;24488;0.000;0.000;2022-12-11T00:35:59;23.20;63.90
38746;DHT22;24488;0.000;0.000;2022-12-11T00:38:24;23.10;63.90
38746;DHT22;24488;0.000;0.000;2022-12-11T00:40:50;23.30;64.10
38746;DHT22;24488;0.000;0.000;2022-12-11T00:43:16;23.20;63.90
38746;DHT22;24488;0.000;0.000;2022-12-11T00:45:42;23.10;63.90
38746;DHT22;24488;0.000;0.000;2022-12-11T00:48:09;23.10;63.70
38746;DHT22;24488;0.000;0.000;2022-12-11T00:50:35;23.10;64.50
38746;DHT22;24488;0.000;0.000;2022-12-11T00:53:02;23.20;63.80
38746;DHT22;24488;0.000;0.000;2022-12-11T00:55:28;23.10;63.80
38746;DHT22;24488;0.000;0.000;2022-12-11T00:57:54;23.20;64.00
38746;DHT22;24488;0.000;0.000;2022-12-11T01:00:21;23.10;63.80
38746;DHT22;24488;0.000;0.000;2022-12-11T01:02:49;23.10;63.70
38746;DHT22;24488;0.000;0.000;2022-12-11T01:07:41;23.10;63.20
38746;DHT22;24488;0.000;0.000;2022-12-11T01:10:07;23.30;64.10
38746;DHT22;24488;0.000;0.000;2022-12-11T01:12:52;23.10;63.80
38746;DHT22;24488;0.000;0.000;2022-12-11T01:15:23;23.20;63.80
38746;DHT22;24488;0.000;0.000;2022-12-11T01:17:53;23.10;63.80
38746;DHT22;24488;0.000;0.000;2022-12-11T01:20:19;23.40;64.20
38746;DHT22;24488;0.000;0.000;2022-12-11T01:22:46;23.10;63.70
38746;DHT22;24488;0.000;0.000;2022-12-11T01:25:11;23.10;63.80
38746;DHT22;24488;0.000;0.000;2022-12-11T01:27:37;23.10;63.70
38746;DHT22;24488;0.000;0.000;2022-12-11T01:30:06;23.10;63.70
38746;DHT22;24488;0.000;0.000;2022-12-11T01:32:33;23.10;63.70
38746;DHT22;24488;0.000;0.000;2022-12-11T01:35:01;23.10;63.70
38746;DHT22;24488;0.000;0.000;2022-12-11T01:37:28;23.30;63.70
38746;DHT22;24488;0.000;0.000;2022-12-11T01:39:55;23.10;63.70
38746;DHT22;24488;0.000;0.000;2022-12-11T01:42:20;23.10;63.70
38746;DHT22;24488;0.000;0.000;2022-12-11T01:47:12;22.80;63.50
38746;DHT22;24488;0.000;0.000;2022-12-11T01:49:38;23.10;63.80
38746;DHT22;24488;0.000;0.000;2022-12-11T01:52:05;23.10;63.70
38746;DHT22;24488;0.000;0.000;2022-12-11T01:54:33;23.00;63.60
38746;DHT22;24488;0.000;0.000;2022-12-11T01:57:00;23.10;64.40
38746;DHT22;24488;0.000;0.000;2022-12-11T01:59:28;23.10;63.70
38746;DHT22;24488;0.000;0.000;2022-12-11T02:01:57;23.20;63.80
38746;DHT22;24488;0.000;0.000;2022-12-11T02:04:29;23.10;63.70
38746;DHT22;24488;0.000;0.000;2022-12-11T02:06:56;23.10;63.60
38746;DHT22;24488;0.000;0.000;2022-12-11T02:09:26;23.00;63.60
38746;DHT22;24488;0.000;0.000;2022-12-11T02:17:24;23.00;63.50
38746;DHT22;24488;0.000;0.000;2022-12-11T02:19:56;23.10;63.50
38746;DHT22;24488;0.000;0.000;2022-12-11T02:25:19;23.00;63.70
38746;DHT22;24488;0.000;0.000;2022-12-11T02:31:04;23.00;63.50
38746;DHT22;24488;0.000;0.000;2022-12-11T02:33:49;23.00;63.50
38746;DHT22;24488;0.000;0.000;2022-12-11T02:36:20;23.00;63.50
38746;DHT22;24488;0.000;0.000;2022-12-11T02:38:48;23.10;63.60
38746;DHT22;24488;0.000;0.000;2022-12-11T02:41:16;23.50;64.00
38746;DHT22;24488;0.000;0.000;2022-12-11T02:43:43;23.10;63.70
38746;DHT22;24488;0.000;0.000;2022-12-11T02:46:09;23.10;63.50
38746;DHT22;24488;0.000;0.000;2022-12-11T02:48:36;23.10;63.60
38746;DHT22;24488;0.000;0.000;2022-12-11T02:53:31;23.00;63.00
38746;DHT22;24488;0.000;0.000;2022-12-11T02:56:00;23.20;63.60
38746;DHT22;24488;0.000;0.000;2022-12-11T02:58:38;23.10;63.70
38746;DHT22;24488;0.000;0.000;2022-12-11T03:01:09;23.10;63.60
38746;DHT22;24488;0.000;0.000;2022-12-11T03:03:35;23.10;63.70
38746;DHT22;24488;0.000;0.000;2022-12-11T03:06:01;23.10;63.60
38746;DHT22;24488;0.000;0.000;2022-12-11T03:08:28;23.10;63.60
38746;DHT22;24488;0.000;0.000;2022-12-11T03:10:54;23.20;63.70
38746;DHT22;24488;0.000;0.000;2022-12-11T03:15:49;23.00;62.80
38746;DHT22;24488;0.000;0.000;2022-12-11T03:18:39;23.20;63.60
38746;DHT22;24488;0.000;0.000;2022-12-11T03:21:13;23.10;63.50
38746;DHT22;24488;0.000;0.000;2022-12-11T03:24:13;23.10;63.50
38746;DHT22;24488;0.000;0.000;2022-12-11T03:26:42;23.10;63.40
38746;DHT22;24488;0.000;0.000;2022-12-11T03:29:20;23.10;63.40
38746;DHT22;24488;0.000;0.000;2022-12-11T03:31:58;23.10;63.50
38746;DHT22;24488;0.000;0.000;2022-12-11T03:34:49;23.30;63.80
38746;DHT22;24488;0.000;0.000;2022-12-11T03:37:18;23.00;63.50
38746;DHT22;24488;0.000;0.000;2022-12-11T03:39:46;23.10;63.40
38746;DHT22;24488;0.000;0.000;2022-12-11T03:42:15;23.10;63.50
38746;DHT22;24488;0.000;0.000;2022-12-11T03:44:42;23.20;63.50
38746;DHT22;24488;0.000;0.000;2022-12-11T03:47:11;23.10;63.40
38746;DHT22;24488;0.000;0.000;2022-12-11T03:49:40;23.10;63.60
38746;DHT22;24488;0.000;0.000;2022-12-11T03:52:06;23.10;63.50
38746;DHT22;24488;0.000;0.000;2022-12-11T03:54:33;23.30;63.50
38746;DHT22;24488;0.000;0.000;2022-12-11T03:56:59;23.10;63.40
38746;DHT22;24488;0.000;0.000;2022-12-11T03:59:26;23.10;63.40
38746;DHT22;24488;0.000;0.000;2022-12-11T04:01:52;23.10;63.50
38746;DHT22;24488;0.000;0.000;2022-12-11T04:04:17;23.00;63.50
38746;DHT22;24488;0.000;0.000;2022-12-11T04:06:43;23.40;63.70
38746;DHT22;24488;0.000;0.000;2022-12-11T04:09:08;23.50;63.70
38746;DHT22;24488;0.000;0.000;2022-12-11T04:11:34;23.30;63.60
38746;DHT22;24488;0.000;0.000;2022-12-11T04:14:03;23.10;63.40
38746;DHT22;24488;0.000;0.000;2022-12-11T04:16:49;23.10;63.40
38746;DHT22;24488;0.000;0.000;2022-12-11T04:19:14;23.10;63.70
38746;DHT22;24488;0.000;0.000;2022-12-11T04:24:45;23.00;62.90
38746;DHT22;24488;0.000;0.000;2022-12-11T04:27:12;23.00;63.30
38746;DHT22;24488;0.000;0.000;2022-12-11T04:29:37;23.00;63.40
38746;DHT22;24488;0.000;0.000;2022-12-11T04:32:03;23.10;63.50
38746;DHT22;24488;0.000;0.000;2022-12-11T04:34:29;23.00;63.30
38746;DHT22;24488;0.000;0.000;2022-12-11T04:36:54;23.00;63.40
38746;DHT22;24488;0.000;0.000;2022-12-11T04:39:20;23.10;63.60
38746;DHT22;24488;0.000;0.000;2022-12-11T04:41:45;23.10;63.40
38746;DHT22;24488;0.000;0.000;2022-12-11T04:44:11;23.10;63.40
38746;DHT22;24488;0.000;0.000;2022-12-11T04:49:02;23.00;62.80
38746;DHT22;24488;0.000;0.000;2022-12-11T04:51:28;23.10;63.60
38746;DHT22;24488;0.000;0.000;2022-12-11T04:53:54;23.20;63.50
38746;DHT22;24488;0.000;0.000;2022-12-11T04:56:19;23.10;63.40
38746;DHT22;24488;0.000;0.000;2022-12-11T04:58:46;23.10;63.30
38746;DHT22;24488;0.000;0.000;2022-12-11T05:01:13;23.30;63.40
38746;DHT22;24488;0.000;0.000;2022-12-11T05:03:43;23.10;63.40
38746;DHT22;24488;0.000;0.000;2022-12-11T05:06:09;23.20;63.30
38746;DHT22;24488;0.000;0.000;2022-12-11T05:08:36;23.20;63.40
38746;DHT22;24488;0.000;0.000;2022-12-11T05:11:04;23.10;63.30
38746;DHT22;24488;0.000;0.000;2022-12-11T05:13:34;23.00;63.40
38746;DHT22;24488;0.000;0.000;2022-12-11T05:16:02;23.00;63.20
38746;DHT22;24488;0.000;0.000;2022-12-11T05:18:28;23.00;63.20
38746;DHT22;24488;0.000;0.000;2022-12-11T05:20:58;23.10;63.40
38746;DHT22;24488;0.000;0.000;2022-12-11T05:23:25;23.00;63.10
38746;DHT22;24488;0.000;0.000;2022-12-11T05:25:52;23.00;63.20
38746;DHT22;24488;0.000;0.000;2022-12-11T05:28:19;23.10;63.30
38746;DHT22;24488;0.000;0.000;2022-12-11T05:30:45;23.00;63.30
38746;DHT22;24488;0.000;0.000;2022-12-11T05:33:10;23.10;63.40
38746;DHT22;24488;0.000;0.000;2022-12-11T05:35:36;23.10;63.40
38746;DHT22;24488;0.000;0.000;2022-12-11T05:40:27;23.00;62.70
38746;DHT22;24488;0.000;0.000;2022-12-11T05:42:53;23.00;63.30
38746;DHT22;24488;0.000;0.000;2022-12-11T05:45:18;23.30;63.50
38746;DHT22;24488;0.000;0.000;2022-12-11T05:47:44;23.10;63.30
38746;DHT22;24488;0.000;0.000;2022-12-11T05:50:10;23.00;63.30
38746;DHT22;24488;0.000;0.000;2022-12-11T05:52:35;23.00;63.30
38746;DHT22;24488;0.000;0.000;2022-12-11T05:55:01;23.10;63.30
38746;DHT22;24488;0.000;0.000;2022-12-11T05:59:52;23.00;62.50
38746;DHT22;24488;0.000;0.000;2022-12-11T06:02:18;23.20;63.40
38746;DHT22;24488;0.000;0.000;2022-12-11T06:04:44;23.10;63.20
38746;DHT22;24488;0.000;0.000;2022-12-11T06:07:09;23.10;63.20
38746;DHT22;24488;0.000;0.000;2022-12-11T06:09:35;23.20;63.30
38746;DHT22;24488;0.000;0.000;2022-12-11T06:12:00;23.20;63.30
38746;DHT22;24488;0.000;0.000;2022-12-11T06:14:26;23.10;63.10
38746;DHT22;24488;0.000;0.000;2022-12-11T06:16:51;23.20;63.20
38746;DHT22;24488;0.000;0.000;2022-12-11T06:19:17;23.10;63.20
38746;DHT22;24488;0.000;0.000;2022-12-11T06:21:43;23.10;63.10
38746;DHT22;24488;0.000;0.000;2022-12-11T06:24:09;23.20;63.20
38746;DHT22;24488;0.000;0.000;2022-12-11T06:26:35;23.10;63.20
38746;DHT22;24488;0.000;0.000;2022-12-11T06:29:01;23.20;63.20
38746;DHT22;24488;0.000;0.000;2022-12-11T06:31:26;23.20;63.20
38746;DHT22;24488;0.000;0.000;2022-12-11T06:33:52;23.60;63.50
38746;DHT22;24488;0.000;0.000;2022-12-11T06:36:19;23.10;63.10
38746;DHT22;24488;0.000;0.000;2022-12-11T06:38:48;23.10;62.40
38746;DHT22;24488;0.000;0.000;2022-12-11T06:41:14;23.20;63.10
38746;DHT22;24488;0.000;0.000;2022-12-11T06:43:40;23.10;63.10
38746;DHT22;24488;0.000;0.000;2022-12-11T06:46:08;23.20;63.20
38746;DHT22;24488;0.000;0.000;2022-12-11T06:48:36;23.10;63.00
38746;DHT22;24488;0.000;0.000;2022-12-11T06:51:05;23.20;63.30
38746;DHT22;24488;0.000;0.000;2022-12-11T06:53:38;23.10;63.00
38746;DHT22;24488;0.000;0.000;2022-12-11T06:56:05;23.30;63.30
38746;DHT22;24488;0.000;0.000;2022-12-11T06:58:33;23.10;63.20
38746;DHT22;24488;0.000;0.000;2022-12-11T07:00:59;23.00;63.10
38746;DHT22;24488;0.000;0.000;2022-12-11T07:03:26;23.10;63.20
38746;DHT22;24488;0.000;0.000;2022-12-11T07:05:52;23.10;63.20
38746;DHT22;24488;0.000;0.000;2022-12-11T07:08:17;23.20;63.30
38746;DHT22;24488;0.000;0.000;2022-12-11T07:10:43;23.70;63.70
38746;DHT22;24488;0.000;0.000;2022-12-11T07:13:08;23.20;63.30
38746;DHT22;24488;0.000;0.000;2022-12-11T07:15:35;23.10;63.30
38746;DHT22;24488;0.000;0.000;2022-12-11T07:18:00;22.90;63.20
38746;DHT22;24488;0.000;0.000;2022-12-11T07:20:26;23.20;63.30
38746;DHT22;24488;0.000;0.000;2022-12-11T07:22:52;23.30;63.50
38746;DHT22;24488;0.000;0.000;2022-12-11T07:25:18;23.00;63.10
38746;DHT22;24488;0.000;0.000;2022-12-11T07:27:44;23.10;63.20
38746;DHT22;24488;0.000;0.000;2022-12-11T07:30:09;23.00;63.20
38746;DHT22;24488;0.000;0.000;2022-12-11T07:32:36;23.10;63.10
38746;DHT22;24488;0.000;0.000;2022-12-11T07:35:01;23.20;63.30
38746;DHT22;24488;0.000;0.000;2022-12-11T07:37:27;23.00;63.00
38746;DHT22;24488;0.000;0.000;2022-12-11T07:39:52;23.20;63.20
38746;DHT22;24488;0.000;0.000;2022-12-11T07:42:18;23.20;63.10
38746;DHT22;24488;0.000;0.000;2022-12-11T07:47:09;23.10;62.50
38746;DHT22;24488;0.000;0.000;2022-12-11T07:49:35;23.10;63.20
38746;DHT22;24488;0.000;0.000;2022-12-11T07:52:01;23.20;63.10
38746;DHT22;24488;0.000;0.000;2022-12-11T07:54:26;23.20;63.00
38746;DHT22;24488;0.000;0.000;2022-12-11T07:56:52;23.20;63.30
38746;DHT22;24488;0.000;0.000;2022-12-11T07:59:18;23.20;63.20
38746;DHT22;24488;0.000;0.000;2022-12-11T08:01:43;23.10;63.10
38746;DHT22;24488;0.000;0.000;2022-12-11T08:04:09;23.20;63.10
38746;DHT22;24488;0.000;0.000;2022-12-11T08:06:36;23.30;63.10
38746;DHT22;24488;0.000;0.000;2022-12-11T08:09:04;23.20;63.10
38746;DHT22;24488;0.000;0.000;2022-12-11T08:11:31;23.10;63.20
38746;DHT22;24488;0.000;0.000;2022-12-11T08:13:57;23.10;63.10
38746;DHT22;24488;0.000;0.000;2022-12-11T08:16:26;23.10;63.10
38746;DHT22;24488;0.000;0.000;2022-12-11T08:18:52;23.20;63.10
38746;DHT22;24488;0.000;0.000;2022-12-11T08:21:21;23.20;63.10
38746;DHT22;24488;0.000;0.000;2022-12-11T08:23:49;23.20;63.20
38746;DHT22;24488;0.000;0.000;2022-12-11T08:26:16;23.30;63.90
38746;DHT22;24488;0.000;0.000;2022-12-11T08:28:44;23.20;63.00
38746;DHT22;24488;0.000;0.000;2022-12-11T08:31:10;23.20;63.10
38746;DHT22;24488;0.000;0.000;2022-12-11T08:36:04;23.00;62.30
38746;DHT22;24488;0.000;0.000;2022-12-11T08:38:31;23.10;62.80
38746;DHT22;24488;0.000;0.000;2022-12-11T08:43:23;23.00;62.00
38746;DHT22;24488;0.000;0.000;2022-12-11T08:45:49;23.10;62.90
38746;DHT22;24488;0.000;0.000;2022-12-11T08:48:15;23.20;63.00
38746;DHT22;24488;0.000;0.000;2022-12-11T08:50:40;23.10;63.00
38746;DHT22;24488;0.000;0.000;2022-12-11T08:53:06;23.10;63.00
38746;DHT22;24488;0.000;0.000;2022-12-11T08:55:32;23.10;63.20
38746;DHT22;24488;0.000;0.000;2022-12-11T08:57:57;23.30;63.20
38746;DHT22;24488;0.000;0.000;2022-12-11T09:00:23;23.20;63.30
38746;DHT22;24488;0.000;0.000;2022-12-11T09:05:14;23.20;62.70
38746;DHT22;24488;0.000;0.000;2022-12-11T09:07:40;23.10;63.30
38746;DHT22;24488;0.000;0.000;2022-12-11T09:10:07;23.20;63.50
38746;DHT22;24488;0.000;0.000;2022-12-11T09:15:00;23.20;62.40
38746;DHT22;24488;0.000;0.000;2022-12-11T09:17:25;23.60;63.70
38746;DHT22;24488;0.000;0.000;2022-12-11T09:19:51;23.20;63.40
38746;DHT22;24488;0.000;0.000;2022-12-11T09:22:17;23.20;63.70
38746;DHT22;24488;0.000;0.000;2022-12-11T09:24:42;23.10;63.30
38746;DHT22;24488;0.000;0.000;2022-12-11T09:27:08;23.30;63.50
38746;DHT22;24488;0.000;0.000;2022-12-11T09:29:33;23.20;63.50
38746;DHT22;24488;0.000;0.000;2022-12-11T09:31:59;23.20;63.60
38746;DHT22;24488;0.000;0.000;2022-12-11T09:34:24;23.20;63.50
38746;DHT22;24488;0.000;0.000;2022-12-11T09:36:50;23.20;63.50
38746;DHT22;24488;0.000;0.000;2022-12-11T09:39:16;23.20;63.70
38746;DHT22;24488;0.000;0.000;2022-12-11T09:44:39;23.30;63.70
38746;DHT22;24488;0.000;0.000;2022-12-11T09:47:13;23.20;63.70
38746;DHT22;24488;0.000;0.000;2022-12-11T09:49:42;23.40;63.90
38746;DHT22;24488;0.000;0.000;2022-12-11T09:52:22;23.30;64.10
38746;DHT22;24488;0.000;0.000;2022-12-11T09:54:58;23.20;63.60
38746;DHT22;24488;0.000;0.000;2022-12-11T09:57:34;23.20;64.10
38746;DHT22;24488;0.000;0.000;2022-12-11T10:00:11;23.30;63.80
38746;DHT22;24488;0.000;0.000;2022-12-11T10:05:25;23.20;63.80
38746;DHT22;24488;0.000;0.000;2022-12-11T10:07:58;23.20;64.00
38746;DHT22;24488;0.000;0.000;2022-12-11T10:13:00;23.30;63.90
38746;DHT22;24488;0.000;0.000;2022-12-11T10:15:43;23.40;64.20
38746;DHT22;24488;0.000;0.000;2022-12-11T10:18:17;23.20;63.80
38746;DHT22;24488;0.000;0.000;2022-12-11T10:20:46;23.30;63.80
38746;DHT22;24488;0.000;0.000;2022-12-11T10:23:15;23.30;63.80
38746;DHT22;24488;0.000;0.000;2022-12-11T10:25:45;23.40;64.00
38746;DHT22;24488;0.000;0.000;2022-12-11T10:28:15;23.50;64.30
38746;DHT22;24488;0.000;0.000;2022-12-11T10:30:53;23.30;63.90
38746;DHT22;24488;0.000;0.000;2022-12-11T10:36:17;23.30;63.70
38746;DHT22;24488;0.000;0.000;2022-12-11T10:38:45;23.30;63.80
38746;DHT22;24488;0.000;0.000;2022-12-11T10:41:32;23.40;64.10
38746;DHT22;24488;0.000;0.000;2022-12-11T10:44:12;23.30;63.70
38746;DHT22;24488;0.000;0.000;2022-12-11T10:49:43;23.30;63.50
38746;DHT22;24488;0.000;0.000;2022-12-11T10:52:23;23.40;63.50
38746;DHT22;24488;0.000;0.000;2022-12-11T10:55:33;23.30;63.50
38746;DHT22;24488;0.000;0.000;2022-12-11T10:57:42;23.40;63.50
38746;DHT22;24488;0.000;0.000;2022-12-11T11:00:24;23.50;63.90
38746;DHT22;24488;0.000;0.000;2022-12-11T11:02:55;23.20;63.40
38746;DHT22;24488;0.000;0.000;2022-12-11T11:05:31;23.30;63.50
38746;DHT22;24488;0.000;0.000;2022-12-11T11:08:11;23.30;63.40
38746;DHT22;24488;0.000;0.000;2022-12-11T11:10:54;23.30;63.40
38746;DHT22;24488;0.000;0.000;2022-12-11T11:13:25;23.30;63.40
38746;DHT22;24488;0.000;0.000;2022-12-11T11:16:03;23.30;63.60
38746;DHT22;24488;0.000;0.000;2022-12-11T11:18:31;23.30;63.70
38746;DHT22;24488;0.000;0.000;2022-12-11T11:20:57;23.30;63.50
38746;DHT22;24488;0.000;0.000;2022-12-11T11:23:23;23.30;63.40
38746;DHT22;24488;0.000;0.000;2022-12-11T11:25:50;23.40;63.60
38746;DHT22;24488;0.000;0.000;2022-12-11T11:28:28;23.30;63.40
38746;DHT22;24488;0.000;0.000;2022-12-11T11:30:59;23.40;63.50
38746;DHT22;24488;0.000;0.000;2022-12-11T11:33:28;23.20;63.30
38746;DHT22;24488;0.000;0.000;2022-12-11T11:36:04;23.40;63.80
38746;DHT22;24488;0.000;0.000;2022-12-11T11:38:35;23.30;63.30
38746;DHT22;24488;0.000;0.000;2022-12-11T11:41:05;23.20;63.30
38746;DHT22;24488;0.000;0.000;2022-12-11T11:43:47;23.20;63.40
38746;DHT22;24488;0.000;0.000;2022-12-11T11:48:49;23.20;63.30
38746;DHT22;24488;0.000;0.000;2022-12-11T11:51:29;23.30;63.40
38746;DHT22;24488;0.000;0.000;2022-12-11T11:53:59;23.10;63.20
38746;DHT22;24488;0.000;0.000;2022-12-11T11:56:29;23.20;63.30
38746;DHT22;24488;0.000;0.000;2022-12-11T11:59:42;23.30;63.40
38746;DHT22;24488;0.000;0.000;2022-12-11T12:01:50;23.20;63.20
38746;DHT22;24488;0.000;0.000;2022-12-11T12:04:18;23.50;63.60
38746;DHT22;24488;0.000;0.000;2022-12-11T12:12:32;23.20;63.20
38746;DHT22;24488;0.000;0.000;2022-12-11T12:15:12;23.30;63.60
38746;DHT22;24488;0.000;0.000;2022-12-11T12:36:26;23.30;63.30
38746;DHT22;24488;0.000;0.000;2022-12-11T12:39:10;23.30;63.40
38746;DHT22;24488;0.000;0.000;2022-12-11T12:44:55;23.20;63.30
38746;DHT22;24488;0.000;0.000;2022-12-11T12:47:23;23.30;63.70
38746;DHT22;24488;0.000;0.000;2022-12-11T12:49:51;23.30;63.50
38746;DHT22;24488;0.000;0.000;2022-12-11T12:52:26;23.30;63.40
38746;DHT22;24488;0.000;0.000;2022-12-11T12:54:56;23.20;63.20
38746;DHT22;24488;0.000;0.000;2022-12-11T12:57:38;23.40;63.40
38746;DHT22;24488;0.000;0.000;2022-12-11T13:00:07;23.30;63.40
38746;DHT22;24488;0.000;0.000;2022-12-11T13:02:36;23.20;63.30
38746;DHT22;24488;0.000;0.000;2022-12-11T13:05:05;23.30;63.40
38746;DHT22;24488;0.000;0.000;2022-12-11T13:07:47;23.20;63.40
38746;DHT22;24488;0.000;0.000;2022-12-11T13:12:50;23.30;63.30
38746;DHT22;24488;0.000;0.000;2022-12-11T13:17:56;23.10;63.20
38746;DHT22;24488;0.000;0.000;2022-12-11T13:20:23;23.30;63.30
38746;DHT22;24488;0.000;0.000;2022-12-11T13:25:21;23.30;62.90
38746;DHT22;24488;0.000;0.000;2022-12-11T13:27:50;23.20;62.90
38746;DHT22;24488;0.000;0.000;2022-12-11T13:35:28;23.20;62.80
38746;DHT22;24488;0.000;0.000;2022-12-11T13:37:55;23.20;62.80
38746;DHT22;24488;0.000;0.000;2022-12-11T13:40:37;23.30;63.00
38746;DHT22;24488;0.000;0.000;2022-12-11T13:43:05;23.20;62.70
38746;DHT22;24488;0.000;0.000;2022-12-11T13:45:38;23.20;62.70
38746;DHT22;24488;0.000;0.000;2022-12-11T13:50:51;23.30;62.90
38746;DHT22;24488;0.000;0.000;2022-12-11T13:53:18;23.20;62.90
38746;DHT22;24488;0.000;0.000;2022-12-11T13:55:44;23.20;62.80
38746;DHT22;24488;0.000;0.000;2022-12-11T13:58:20;23.20;62.80
38746;DHT22;24488;0.000;0.000;2022-12-11T14:00:51;23.20;62.80
38746;DHT22;24488;0.000;0.000;2022-12-11T14:03:21;23.30;62.90
38746;DHT22;24488;0.000;0.000;2022-12-11T14:05:47;23.20;62.70
38746;DHT22;24488;0.000;0.000;2022-12-11T14:08:16;23.30;62.90
38746;DHT22;24488;0.000;0.000;2022-12-11T14:10:50;23.20;62.60
38746;DHT22;24488;0.000;0.000;2022-12-11T14:13:24;23.20;62.70
38746;DHT22;24488;0.000;0.000;2022-12-11T14:15:51;23.20;62.60
38746;DHT22;24488;0.000;0.000;2022-12-11T14:18:21;23.30;62.90
38746;DHT22;24488;0.000;0.000;2022-12-11T14:23:23;23.20;62.00
38746;DHT22;24488;0.000;0.000;2022-12-11T14:25:51;23.20;62.80
38746;DHT22;24488;0.000;0.000;2022-12-11T14:28:21;23.20;62.70
38746;DHT22;24488;0.000;0.000;2022-12-11T14:30:52;23.20;62.70
38746;DHT22;24488;0.000;0.000;2022-12-11T14:33:21;23.20;62.70
38746;DHT22;24488;0.000;0.000;2022-12-11T14:35:47;23.10;62.10
38746;DHT22;24488;0.000;0.000;2022-12-11T14:38:18;23.30;62.70
38746;DHT22;24488;0.000;0.000;2022-12-11T14:40:48;23.20;62.70
38746;DHT22;24488;0.000;0.000;2022-12-11T14:45:45;23.20;62.40
38746;DHT22;24488;0.000;0.000;2022-12-11T14:48:14;23.30;62.90
38746;DHT22;24488;0.000;0.000;2022-12-11T14:50:49;23.60;63.20
38746;DHT22;24488;0.000;0.000;2022-12-11T14:53:18;23.30;62.60
38746;DHT22;24488;0.000;0.000;2022-12-11T14:55:47;23.30;62.70
38746;DHT22;24488;0.000;0.000;2022-12-11T14:58:16;23.30;62.70
38746;DHT22;24488;0.000;0.000;2022-12-11T15:00:43;23.20;62.70
38746;DHT22;24488;0.000;0.000;2022-12-11T15:03:21;23.20;62.70
38746;DHT22;24488;0.000;0.000;2022-12-11T15:05:49;23.20;62.60
38746;DHT22;24488;0.000;0.000;2022-12-11T15:08:20;23.20;63.10
38746;DHT22;24488;0.000;0.000;2022-12-11T15:11:03;23.10;62.80
38746;DHT22;24488;0.000;0.000;2022-12-11T15:16:18;23.20;63.30
38746;DHT22;24488;0.000;0.000;2022-12-11T15:18:46;23.30;62.70
38746;DHT22;24488;0.000;0.000;2022-12-11T15:21:12;23.30;62.80
38746;DHT22;24488;0.000;0.000;2022-12-11T15:23:51;23.30;62.90
38746;DHT22;24488;0.000;0.000;2022-12-11T15:26:19;23.10;62.50
38746;DHT22;24488;0.000;0.000;2022-12-11T15:28:45;23.20;62.70
38746;DHT22;24488;0.000;0.000;2022-12-11T15:31:25;23.20;62.80
38746;DHT22;24488;0.000;0.000;2022-12-11T15:33:52;23.30;62.60
38746;DHT22;24488;0.000;0.000;2022-12-11T15:36:25;23.30;62.80
38746;DHT22;24488;0.000;0.000;2022-12-11T15:38:54;23.10;62.60
38746;DHT22;24488;0.000;0.000;2022-12-11T15:41:20;23.30;62.90
38746;DHT22;24488;0.000;0.000;2022-12-11T15:43:48;23.10;62.70
38746;DHT22;24488;0.000;0.000;2022-12-11T15:46:13;23.10;62.80
38746;DHT22;24488;0.000;0.000;2022-12-11T15:48:39;23.20;62.80
38746;DHT22;24488;0.000;0.000;2022-12-11T15:51:04;23.20;62.80
38746;DHT22;24488;0.000;0.000;2022-12-11T15:53:30;23.20;62.80
38746;DHT22;24488;0.000;0.000;2022-12-11T15:55:56;23.20;62.90
38746;DHT22;24488;0.000;0.000;2022-12-11T15:58:23;23.10;62.60
38746;DHT22;24488;0.000;0.000;2022-12-11T16:03:17;23.10;62.40
38746;DHT22;24488;0.000;0.000;2022-12-11T16:05:43;23.20;62.80
38746;DHT22;24488;0.000;0.000;2022-12-11T16:10:42;23.10;62.20
38746;DHT22;24488;0.000;0.000;2022-12-11T16:13:10;23.20;62.80
38746;DHT22;24488;0.000;0.000;2022-12-11T16:18:04;23.10;62.10
38746;DHT22;24488;0.000;0.000;2022-12-11T16:20:31;23.20;62.80
38746;DHT22;24488;0.000;0.000;2022-12-11T16:25:24;22.60;61.80
38746;DHT22;24488;0.000;0.000;2022-12-11T16:30:21;23.20;62.00
38746;DHT22;24488;0.000;0.000;2022-12-11T16:32:47;23.10;62.60
38746;DHT22;24488;0.000;0.000;2022-12-11T16:35:13;23.30;62.80
38746;DHT22;24488;0.000;0.000;2022-12-11T16:37:39;23.20;62.70
38746;DHT22;24488;0.000;0.000;2022-12-11T16:40:04;23.30;62.80
38746;DHT22;24488;0.000;0.000;2022-12-11T16:42:31;23.30;62.90
38746;DHT22;24488;0.000;0.000;2022-12-11T16:45:03;23.20;62.70
38746;DHT22;24488;0.000;0.000;2022-12-11T16:47:31;23.20;62.60
38746;DHT22;24488;0.000;0.000;2022-12-11T16:49:57;23.30;62.90
38746;DHT22;24488;0.000;0.000;2022-12-11T16:52:23;23.30;62.80
38746;DHT22;24488;0.000;0.000;2022-12-11T16:54:48;23.20;62.80
38746;DHT22;24488;0.000;0.000;2022-12-11T16:57:14;23.30;63.10
38746;DHT22;24488;0.000;0.000;2022-12-11T16:59:40;23.30;62.90
38746;DHT22;24488;0.000;0.000;2022-12-11T17:02:05;23.20;62.80
38746;DHT22;24488;0.000;0.000;2022-12-11T17:04:31;23.30;62.90
38746;DHT22;24488;0.000;0.000;2022-12-11T17:06:56;23.30;62.90
38746;DHT22;24488;0.000;0.000;2022-12-11T17:09:22;23.30;62.90
38746;DHT22;24488;0.000;0.000;2022-12-11T17:11:48;23.20;62.70
38746;DHT22;24488;0.000;0.000;2022-12-11T17:14:13;23.20;62.80
38746;DHT22;24488;0.000;0.000;2022-12-11T17:16:39;22.90;62.60
38746;DHT22;24488;0.000;0.000;2022-12-11T17:19:05;23.20;63.00
38746;DHT22;24488;0.000;0.000;2022-12-11T17:23:57;23.20;62.30
38746;DHT22;24488;0.000;0.000;2022-12-11T17:26:23;23.20;62.90
38746;DHT22;24488;0.000;0.000;2022-12-11T17:28:49;23.20;62.80
38746;DHT22;24488;0.000;0.000;2022-12-11T17:31:16;23.20;62.80
38746;DHT22;24488;0.000;0.000;2022-12-11T17:33:43;23.20;62.80
38746;DHT22;24488;0.000;0.000;2022-12-11T17:36:10;23.20;62.80
38746;DHT22;24488;0.000;0.000;2022-12-11T17:38:38;23.30;62.70
38746;DHT22;24488;0.000;0.000;2022-12-11T17:41:04;23.20;62.80
38746;DHT22;24488;0.000;0.000;2022-12-11T17:43:31;23.30;62.80
38746;DHT22;24488;0.000;0.000;2022-12-11T17:45:56;23.20;62.80
38746;DHT22;24488;0.000;0.000;2022-12-11T17:48:22;23.20;62.80
38746;DHT22;24488;0.000;0.000;2022-12-11T17:50:48;23.30;63.00
38746;DHT22;24488;0.000;0.000;2022-12-11T17:53:14;23.20;62.90
38746;DHT22;24488;0.000;0.000;2022-12-11T17:55:41;23.30;62.90
38746;DHT22;24488;0.000;0.000;2022-12-11T17:58:08;23.30;62.90
38746;DHT22;24488;0.000;0.000;2022-12-11T18:00:34;23.20;62.90